createdAt,value
2022-10-09T00:00:26.793Z,97153.28
2022-10-09T00:01:20.011Z,97151.56
2022-10-09T00:01:51.818Z,97160.03
2022-10-09T00:02:23.761Z,97155.31
2022-10-09T00:02:55.522Z,97160.03
2022-10-09T00:03:27.231Z,97150.44
2022-10-09T00:04:00.261Z,97154.69
2022-10-09T00:04:32.017Z,97151.69
2022-10-09T00:05:04.106Z,97154.81
2022-10-09T00:05:35.995Z,97152.78
2022-10-09T00:06:10.562Z,97149.00
2022-10-09T00:06:42.283Z,97148.41
2022-10-09T00:07:14.023Z,97152.03
2022-10-09T00:07:45.796Z,97151.06
2022-10-09T00:08:17.554Z,97141.31
2022-10-09T00:08:50.050Z,97143.22
2022-10-09T00:09:21.820Z,97157.16
2022-10-09T00:09:53.633Z,97159.22
2022-10-09T00:10:26.055Z,97147.13
2022-10-09T00:10:57.829Z,97145.06
2022-10-09T00:11:31.407Z,97146.19
2022-10-09T00:12:03.711Z,97150.41
2022-10-09T00:12:35.622Z,97146.66
2022-10-09T00:13:07.510Z,97153.88
2022-10-09T00:13:39.347Z,97145.25
2022-10-09T00:14:11.089Z,97152.41
2022-10-09T00:14:42.862Z,97144.91
2022-10-09T00:15:14.711Z,97150.25
2022-10-09T00:15:47.617Z,97146.66
2022-10-09T00:16:21.549Z,97148.88
2022-10-09T00:16:54.603Z,97147.59
2022-10-09T00:17:26.450Z,97153.06
2022-10-09T00:17:58.164Z,97150.84
2022-10-09T00:18:30.168Z,97146.47
2022-10-09T00:19:02.718Z,97146.91
2022-10-09T00:19:34.543Z,97146.91
2022-10-09T00:20:07.403Z,97148.69
2022-10-09T00:20:41.556Z,97149.44
2022-10-09T00:21:21.232Z,97147.09
2022-10-09T00:21:52.932Z,97143.16
2022-10-09T00:22:24.837Z,97143.94
2022-10-09T00:22:56.623Z,97147.22
2022-10-09T00:23:28.523Z,97150.09
2022-10-09T00:24:02.868Z,97142.38
2022-10-09T00:24:34.652Z,97151.94
2022-10-09T00:25:07.100Z,97147.59
2022-10-09T00:25:39.302Z,97145.81
2022-10-09T00:26:12.005Z,97147.22
2022-10-09T00:26:43.748Z,97149.13
2022-10-09T00:27:15.553Z,97148.16
2022-10-09T00:27:47.470Z,97144.22
2022-10-09T00:28:20.487Z,97145.19
2022-10-09T00:28:52.455Z,97148.81
2022-10-09T00:29:24.258Z,97141.59
2022-10-09T00:29:56.019Z,97151.28
2022-10-09T00:30:28.445Z,97142.53
2022-10-09T00:31:05.003Z,97149.88
2022-10-09T00:31:36.890Z,97147.16
2022-10-09T00:32:08.638Z,97147.50
2022-10-09T00:32:40.466Z,97147.03
2022-10-09T00:33:12.258Z,97151.69
2022-10-09T00:33:44.719Z,97145.91
2022-10-09T00:34:16.812Z,97146.19
2022-10-09T00:34:49.037Z,97147.91
2022-10-09T00:35:21.406Z,97147.91
2022-10-09T00:35:53.263Z,97148.69
2022-10-09T00:36:26.471Z,97141.16
2022-10-09T00:36:58.395Z,97146.94
2022-10-09T00:37:30.175Z,97142.03
2022-10-09T00:38:02.003Z,97143.94
2022-10-09T00:38:34.800Z,97156.75
2022-10-09T00:39:06.643Z,97147.06
2022-10-09T00:39:38.432Z,97154.75
2022-10-09T00:40:10.727Z,97147.22
2022-10-09T00:40:42.638Z,97143.63
2022-10-09T00:41:18.025Z,97143.81
2022-10-09T00:41:49.937Z,97148.97
2022-10-09T00:42:21.859Z,97142.22
2022-10-09T00:42:57.800Z,97141.97
2022-10-09T00:43:53.962Z,97143.00
2022-10-09T00:44:48.990Z,97141.25
2022-10-09T00:45:21.683Z,97141.69
2022-10-09T00:45:56.623Z,97144.69
2022-10-09T00:46:35.486Z,97138.22
2022-10-09T00:47:17.562Z,97137.63
2022-10-09T00:47:54.325Z,97140.44
2022-10-09T00:48:26.090Z,97141.31
2022-10-09T00:49:03.808Z,97148.75
2022-10-09T00:49:36.213Z,97135.75
2022-10-09T00:50:25.112Z,97140.97
2022-10-09T00:51:01.072Z,97137.22
2022-10-09T00:51:34.067Z,97136.72
2022-10-09T00:52:07.497Z,97142.22
2022-10-09T00:52:39.761Z,97139.25
2022-10-09T00:53:16.027Z,97141.13
2022-10-09T00:53:47.839Z,97127.81
2022-10-09T00:54:24.580Z,97130.22
2022-10-09T00:54:57.761Z,97127.97
2022-10-09T00:55:30.831Z,97138.16
2022-10-09T00:56:03.124Z,97128.56
2022-10-09T00:56:35.597Z,97140.03
2022-10-09T00:57:08.304Z,97123.06
2022-10-09T00:57:41.841Z,97130.03
2022-10-09T00:58:14.369Z,97127.38
2022-10-09T00:58:52.389Z,97127.53
2022-10-09T00:59:25.377Z,97122.94
2022-10-09T00:59:57.195Z,97119.00
2022-10-09T01:00:29.398Z,97123.34
2022-10-09T01:01:01.208Z,97130.06
2022-10-09T01:01:33.183Z,97123.81
2022-10-09T01:02:05.256Z,97119.94
2022-10-09T01:02:37.734Z,97127.63
2022-10-09T01:03:09.581Z,97120.41
2022-10-09T01:03:42.119Z,97124.91
2022-10-09T01:04:14.324Z,97121.94
2022-10-09T01:04:46.126Z,97124.91
2022-10-09T01:05:18.178Z,97120.38
2022-10-09T01:06:15.944Z,97119.97
2022-10-09T01:07:02.896Z,97118.56
2022-10-09T01:07:59.604Z,97117.47
2022-10-09T01:09:01.603Z,97112.94
2022-10-09T01:10:11.211Z,97113.25
2022-10-09T01:10:57.889Z,97110.63
2022-10-09T01:12:04.494Z,97108.59
2022-10-09T01:12:40.885Z,97106.50
2022-10-09T01:13:24.992Z,97100.66
2022-10-09T01:14:19.518Z,97098.34
2022-10-09T01:15:03.623Z,97094.97
2022-10-09T01:15:48.155Z,97105.00
2022-10-09T01:16:27.339Z,97097.13
2022-10-09T01:17:19.016Z,97100.19
2022-10-09T01:18:06.154Z,97100.19
2022-10-09T01:18:50.011Z,97100.16
2022-10-09T01:19:40.291Z,97104.16
2022-10-09T01:20:26.471Z,97102.38
2022-10-09T01:21:08.465Z,97099.34
2022-10-09T01:21:52.471Z,97100.47
2022-10-09T01:22:43.113Z,97096.53
2022-10-09T01:23:36.417Z,97099.97
2022-10-09T01:24:38.135Z,97099.94
2022-10-09T01:25:28.981Z,97097.34
2022-10-09T01:26:20.999Z,97091.34
2022-10-09T01:27:20.056Z,97103.94
2022-10-09T01:27:52.446Z,97102.84
2022-10-09T01:28:28.974Z,97094.44
2022-10-09T01:29:10.822Z,97099.59
2022-10-09T01:29:46.452Z,97098.63
2022-10-09T01:30:18.523Z,97099.38
2022-10-09T01:30:50.805Z,97101.44
2022-10-09T01:31:28.276Z,97093.63
2022-10-09T01:32:01.513Z,97100.97
2022-10-09T01:32:37.740Z,97103.53
2022-10-09T01:33:11.105Z,97105.34
2022-10-09T01:33:43.102Z,97100.97
2022-10-09T01:34:17.738Z,97098.06
2022-10-09T01:34:52.659Z,97093.59
2022-10-09T01:35:26.191Z,97093.13
2022-10-09T01:36:00.728Z,97095.16
2022-10-09T01:36:33.076Z,97087.91
2022-10-09T01:37:06.610Z,97091.06
2022-10-09T01:37:42.303Z,97091.53
2022-10-09T01:38:14.943Z,97090.38
2022-10-09T01:38:47.096Z,97083.00
2022-10-09T01:39:21.349Z,97087.59
2022-10-09T01:39:53.899Z,97091.53
2022-10-09T01:40:26.953Z,97086.88
2022-10-09T01:40:58.882Z,97087.00
2022-10-09T01:41:31.055Z,97087.78
2022-10-09T01:42:03.329Z,97085.91
2022-10-09T01:42:35.240Z,97083.22
2022-10-09T01:43:06.978Z,97080.09
2022-10-09T01:43:38.703Z,97082.63
2022-10-09T01:44:19.028Z,97084.25
2022-10-09T01:44:50.860Z,97082.59
2022-10-09T01:45:22.685Z,97082.09
2022-10-09T01:46:26.476Z,97079.22
2022-10-09T01:46:59.564Z,97077.59
2022-10-09T01:47:31.415Z,97079.31
2022-10-09T01:48:03.772Z,97075.06
2022-10-09T01:48:35.953Z,97082.47
2022-10-09T01:49:44.067Z,97076.06
2022-10-09T01:50:27.301Z,97080.25
2022-10-09T01:51:04.294Z,97076.34
2022-10-09T01:51:49.611Z,97077.38
2022-10-09T01:52:40.378Z,97074.50
2022-10-09T01:53:18.679Z,97066.38
2022-10-09T01:53:54.569Z,97067.38
2022-10-09T01:55:02.973Z,97067.22
2022-10-09T01:55:57.735Z,97066.53
2022-10-09T01:56:34.767Z,97060.94
2022-10-09T01:57:10.167Z,97071.09
2022-10-09T01:57:51.338Z,97074.06
2022-10-09T01:58:35.581Z,97069.69
2022-10-09T01:59:16.066Z,97068.03
2022-10-09T01:59:51.902Z,97074.22
2022-10-09T02:00:24.395Z,97070.28
2022-10-09T02:01:05.528Z,97067.53
2022-10-09T02:01:39.553Z,97064.53
2022-10-09T02:02:11.823Z,97070.75
2022-10-09T02:02:44.904Z,97060.66
2022-10-09T02:03:17.425Z,97066.13
2022-10-09T02:03:51.983Z,97067.22
2022-10-09T02:04:24.903Z,97060.63
2022-10-09T02:04:58.076Z,97071.09
2022-10-09T02:05:31.514Z,97067.50
2022-10-09T02:06:07.851Z,97065.41
2022-10-09T02:06:41.455Z,97064.41
2022-10-09T02:07:13.359Z,97064.13
2022-10-09T02:07:45.462Z,97060.66
2022-10-09T02:08:19.471Z,97063.81
2022-10-09T02:08:53.893Z,97069.63
2022-10-09T02:09:25.760Z,97066.66
2022-10-09T02:09:59.715Z,97062.59
2022-10-09T02:10:34.300Z,97065.28
2022-10-09T02:11:07.685Z,97064.63
2022-10-09T02:11:42.167Z,97061.47
2022-10-09T02:12:16.577Z,97059.16
2022-10-09T02:12:57.560Z,97064.97
2022-10-09T02:13:32.296Z,97062.25
2022-10-09T02:14:04.144Z,97063.31
2022-10-09T02:14:36.107Z,97061.88
2022-10-09T02:15:09.155Z,97068.78
2022-10-09T02:15:48.598Z,97060.78
2022-10-09T02:16:46.633Z,97056.31
2022-10-09T02:17:24.063Z,97058.69
2022-10-09T02:18:02.278Z,97057.84
2022-10-09T02:18:40.519Z,97052.09
2022-10-09T02:19:37.586Z,97064.78
2022-10-09T02:20:19.549Z,97059.47
2022-10-09T02:20:56.995Z,97055.53
2022-10-09T02:21:44.021Z,97061.03
2022-10-09T02:22:21.541Z,97056.56
2022-10-09T02:22:55.635Z,97067.34
2022-10-09T02:23:28.941Z,97055.59
2022-10-09T02:24:03.798Z,97062.63
2022-10-09T02:24:38.851Z,97062.97
2022-10-09T02:25:11.202Z,97060.16
2022-10-09T02:25:43.280Z,97048.81
2022-10-09T02:26:15.460Z,97057.09
2022-10-09T02:26:47.233Z,97056.47
2022-10-09T02:27:20.931Z,97054.56
2022-10-09T02:27:53.043Z,97058.78
2022-10-09T02:28:24.985Z,97059.72
2022-10-09T02:28:58.117Z,97058.50
2022-10-09T02:29:30.016Z,97058.78
2022-10-09T02:30:02.512Z,97058.03
2022-10-09T02:30:44.719Z,97055.41
2022-10-09T02:31:31.126Z,97060.56
2022-10-09T02:32:03.313Z,97049.41
2022-10-09T02:32:35.312Z,97059.66
2022-10-09T02:33:07.060Z,97059.34
2022-10-09T02:33:38.877Z,97048.50
2022-10-09T02:34:14.173Z,97055.72
2022-10-09T02:34:46.275Z,97054.69
2022-10-09T02:35:18.252Z,97054.75
2022-10-09T02:35:50.110Z,97053.13
2022-10-09T02:36:21.898Z,97057.47
2022-10-09T02:36:53.712Z,97059.25
2022-10-09T02:37:25.544Z,97052.03
2022-10-09T02:37:57.315Z,97053.28
2022-10-09T02:38:29.431Z,97050.34
2022-10-09T02:39:01.520Z,97046.69
2022-10-09T02:39:33.281Z,97046.53
2022-10-09T02:40:10.426Z,97054.50
2022-10-09T02:40:42.719Z,97051.25
2022-10-09T02:41:14.538Z,97049.19
2022-10-09T02:41:46.356Z,97048.09
2022-10-09T02:42:18.426Z,97046.09
2022-10-09T02:42:50.459Z,97046.69
2022-10-09T02:43:22.471Z,97049.97
2022-10-09T02:43:55.204Z,97048.59
2022-10-09T02:44:27.506Z,97052.53
2022-10-09T02:44:59.282Z,97042.78
2022-10-09T02:45:31.041Z,97032.13
2022-10-09T02:46:02.911Z,97035.75
2022-10-09T02:46:35.265Z,97044.97
2022-10-09T02:47:07.108Z,97039.25
2022-10-09T02:47:38.858Z,97048.22
2022-10-09T02:48:10.594Z,97042.53
2022-10-09T02:48:42.780Z,97045.47
2022-10-09T02:49:14.532Z,97040.53
2022-10-09T02:49:46.416Z,97045.44
2022-10-09T02:50:26.919Z,97039.69
2022-10-09T02:50:59.895Z,97044.44
2022-10-09T02:51:31.780Z,97042.28
2022-10-09T02:52:03.988Z,97045.44
2022-10-09T02:52:35.964Z,97033.38
2022-10-09T02:53:08.799Z,97037.50
2022-10-09T02:53:40.774Z,97041.06
2022-10-09T02:54:12.546Z,97043.28
2022-10-09T02:54:44.357Z,97042.47
2022-10-09T02:55:16.203Z,97041.03
2022-10-09T02:55:48.152Z,97043.38
2022-10-09T02:56:21.344Z,97041.38
2022-10-09T02:56:53.162Z,97043.38
2022-10-09T02:57:25.231Z,97046.22
2022-10-09T02:57:57.091Z,97040.91
2022-10-09T02:58:32.909Z,97041.56
2022-10-09T02:59:04.730Z,97038.13
2022-10-09T02:59:36.542Z,97039.00
2022-10-09T03:00:08.879Z,97046.69
2022-10-09T03:00:40.691Z,97041.19
2022-10-09T03:01:12.907Z,97037.75
2022-10-09T03:01:44.773Z,97046.81
2022-10-09T03:02:16.907Z,97039.50
2022-10-09T03:02:49.086Z,97034.91
2022-10-09T03:03:21.108Z,97031.81
2022-10-09T03:03:52.978Z,97037.75
2022-10-09T03:04:24.811Z,97033.69
2022-10-09T03:04:56.732Z,97029.75
2022-10-09T03:05:28.592Z,97034.31
2022-10-09T03:06:05.712Z,97034.31
2022-10-09T03:06:37.557Z,97035.69
2022-10-09T03:07:09.348Z,97036.47
2022-10-09T03:07:41.197Z,97036.16
2022-10-09T03:08:13.370Z,97033.22
2022-10-09T03:08:47.916Z,97027.78
2022-10-09T03:09:19.699Z,97032.25
2022-10-09T03:09:51.629Z,97039.47
2022-10-09T03:10:23.535Z,97033.81
2022-10-09T03:10:55.549Z,97030.25
2022-10-09T03:11:27.507Z,97033.34
2022-10-09T03:11:59.434Z,97035.19
2022-10-09T03:12:31.212Z,97035.31
2022-10-09T03:13:03.312Z,97032.00
2022-10-09T03:13:35.395Z,97038.84
2022-10-09T03:14:07.205Z,97032.25
2022-10-09T03:14:39.024Z,97029.28
2022-10-09T03:15:12.292Z,97032.25
2022-10-09T03:15:44.767Z,97036.00
2022-10-09T03:16:20.942Z,97034.31
2022-10-09T03:16:52.777Z,97035.81
2022-10-09T03:17:24.593Z,97021.59
2022-10-09T03:17:56.365Z,97023.78
2022-10-09T03:18:28.166Z,97022.19
2022-10-09T03:19:00.191Z,97024.75
2022-10-09T03:19:31.972Z,97027.72
2022-10-09T03:20:04.645Z,97024.56
2022-10-09T03:20:37.766Z,97028.31
2022-10-09T03:21:13.427Z,97019.91
2022-10-09T03:21:45.354Z,97020.63
2022-10-09T03:22:17.432Z,97024.19
2022-10-09T03:22:49.520Z,97028.13
2022-10-09T03:23:21.732Z,97029.69
2022-10-09T03:23:55.012Z,97022.81
2022-10-09T03:24:26.806Z,97026.44
2022-10-09T03:24:58.571Z,97018.75
2022-10-09T03:25:30.457Z,97027.34
2022-10-09T03:26:05.954Z,97027.50
2022-10-09T03:26:39.324Z,97021.59
2022-10-09T03:27:11.380Z,97029.28
2022-10-09T03:27:43.219Z,97026.16
2022-10-09T03:28:15.051Z,97015.50
2022-10-09T03:28:48.934Z,97023.28
2022-10-09T03:29:20.886Z,97026.06
2022-10-09T03:29:52.663Z,97022.69
2022-10-09T03:30:24.797Z,97031.88
2022-10-09T03:30:57.381Z,97017.19
2022-10-09T03:32:22.174Z,97017.38
2022-10-09T03:32:54.024Z,97023.16
2022-10-09T03:33:25.823Z,97027.03
2022-10-09T03:33:58.044Z,97024.78
2022-10-09T03:34:29.851Z,97021.03
2022-10-09T03:35:01.716Z,97030.28
2022-10-09T03:35:33.597Z,97019.19
2022-10-09T03:36:06.540Z,97017.97
2022-10-09T03:36:38.524Z,97023.41
2022-10-09T03:37:10.392Z,97025.19
2022-10-09T03:37:42.238Z,97024.19
2022-10-09T03:38:14.298Z,97019.97
2022-10-09T03:38:46.174Z,97022.94
2022-10-09T03:39:18.046Z,97021.38
2022-10-09T03:39:49.807Z,97020.75
2022-10-09T03:40:22.041Z,97029.03
2022-10-09T03:40:54.289Z,97029.34
2022-10-09T03:41:26.084Z,97029.03
2022-10-09T03:41:58.097Z,97021.66
2022-10-09T03:42:29.904Z,97023.22
2022-10-09T03:43:01.639Z,97030.13
2022-10-09T03:43:33.864Z,97024.31
2022-10-09T03:44:05.766Z,97026.97
2022-10-09T03:44:37.713Z,97025.59
2022-10-09T03:45:10.026Z,97023.41
2022-10-09T03:45:42.684Z,97026.81
2022-10-09T03:46:14.612Z,97026.69
2022-10-09T03:46:46.843Z,97012.66
2022-10-09T03:47:18.712Z,97022.44
2022-10-09T03:47:50.547Z,97024.91
2022-10-09T03:48:22.579Z,97018.50
2022-10-09T03:48:54.426Z,97019.13
2022-10-09T03:49:26.231Z,97019.88
2022-10-09T03:49:58.014Z,97020.50
2022-10-09T03:50:29.847Z,97017.53
2022-10-09T03:51:01.643Z,97016.25
2022-10-09T03:51:33.681Z,97020.28
2022-10-09T03:52:05.504Z,97024.50
2022-10-09T03:52:37.371Z,97023.53
2022-10-09T03:53:11.000Z,97026.59
2022-10-09T03:53:42.788Z,97033.56
2022-10-09T03:54:14.727Z,97028.75
2022-10-09T03:54:46.818Z,97033.28
2022-10-09T03:55:18.572Z,97027.16
2022-10-09T03:55:50.382Z,97035.13
2022-10-09T03:56:22.260Z,97027.47
2022-10-09T03:56:54.080Z,97027.88
2022-10-09T03:57:25.865Z,97041.66
2022-10-09T03:57:57.681Z,97036.22
2022-10-09T03:58:29.501Z,97036.66
2022-10-09T03:59:01.423Z,97028.97
2022-10-09T03:59:33.265Z,97038.41
2022-10-09T04:00:06.529Z,97031.81
2022-10-09T04:00:38.465Z,97030.84
2022-10-09T04:01:10.495Z,97030.44
2022-10-09T04:01:42.348Z,97034.28
2022-10-09T04:02:14.301Z,97028.25
2022-10-09T04:02:46.416Z,97037.53
2022-10-09T04:03:18.808Z,97033.00
2022-10-09T04:03:50.634Z,97035.56
2022-10-09T04:04:23.461Z,97030.41
2022-10-09T04:04:55.290Z,97029.53
2022-10-09T04:05:27.044Z,97026.19
2022-10-09T04:05:58.934Z,97030.81
2022-10-09T04:06:30.755Z,97031.50
2022-10-09T04:07:02.653Z,97030.91
2022-10-09T04:07:34.599Z,97031.16
2022-10-09T04:08:06.536Z,97032.22
2022-10-09T04:08:38.389Z,97035.16
2022-10-09T04:09:10.175Z,97031.41
2022-10-09T04:09:42.093Z,97032.50
2022-10-09T04:10:13.962Z,97034.56
2022-10-09T04:10:45.813Z,97032.72
2022-10-09T04:11:17.674Z,97033.81
2022-10-09T04:11:49.509Z,97028.84
2022-10-09T04:12:21.369Z,97036.94
2022-10-09T04:12:53.198Z,97034.47
2022-10-09T04:13:25.152Z,97033.28
2022-10-09T04:13:57.048Z,97040.19
2022-10-09T04:14:28.855Z,97031.50
2022-10-09T04:15:00.800Z,97035.84
2022-10-09T04:15:32.744Z,97034.38
2022-10-09T04:16:05.204Z,97027.88
2022-10-09T04:16:37.062Z,97026.69
2022-10-09T04:17:09.261Z,97030.72
2022-10-09T04:17:41.053Z,97023.22
2022-10-09T04:18:12.864Z,97024.50
2022-10-09T04:18:45.426Z,97016.09
2022-10-09T04:19:17.964Z,97021.03
2022-10-09T04:19:50.183Z,97022.25
2022-10-09T04:20:22.654Z,97021.78
2022-10-09T04:20:56.727Z,97018.19
2022-10-09T04:21:28.546Z,97016.16
2022-10-09T04:22:00.326Z,97012.53
2022-10-09T04:22:32.223Z,97018.81
2022-10-09T04:23:04.167Z,97024.03
2022-10-09T04:23:36.006Z,97014.16
2022-10-09T04:24:08.672Z,97027.38
2022-10-09T04:24:40.460Z,97027.09
2022-10-09T04:25:12.327Z,97025.41
2022-10-09T04:25:45.174Z,97028.25
2022-10-09T04:26:17.003Z,97026.06
2022-10-09T04:26:48.835Z,97030.41
2022-10-09T04:27:20.785Z,97024.03
2022-10-09T04:27:52.560Z,97030.91
2022-10-09T04:28:25.277Z,97022.56
2022-10-09T04:28:57.145Z,97033.88
2022-10-09T04:29:29.044Z,97033.19
2022-10-09T04:30:00.883Z,97029.94
2022-10-09T04:30:32.697Z,97022.25
2022-10-09T04:31:04.857Z,97025.41
2022-10-09T04:31:36.656Z,97026.59
2022-10-09T04:32:09.252Z,97025.88
2022-10-09T04:32:41.100Z,97030.41
2022-10-09T04:33:13.269Z,97018.09
2022-10-09T04:33:45.296Z,97024.19
2022-10-09T04:34:17.077Z,97016.88
2022-10-09T04:34:49.093Z,97023.59
2022-10-09T04:35:20.921Z,97017.00
2022-10-09T04:35:54.670Z,97015.94
2022-10-09T04:36:26.496Z,97016.53
2022-10-09T04:36:58.382Z,97018.59
2022-10-09T04:37:30.312Z,97014.72
2022-10-09T04:38:02.126Z,97016.09
2022-10-09T04:38:33.970Z,97010.09
2022-10-09T04:39:05.841Z,97017.59
2022-10-09T04:39:37.664Z,97013.91
2022-10-09T04:40:09.694Z,97009.38
2022-10-09T04:40:41.824Z,97008.78
2022-10-09T04:41:13.748Z,97011.94
2022-10-09T04:41:45.704Z,97017.53
2022-10-09T04:42:17.624Z,97011.94
2022-10-09T04:42:49.817Z,97007.03
2022-10-09T04:43:21.825Z,97015.69
2022-10-09T04:43:57.386Z,97016.16
2022-10-09T04:44:29.154Z,97018.47
2022-10-09T04:45:01.143Z,97022.56
2022-10-09T04:45:33.267Z,97013.50
2022-10-09T04:46:06.672Z,97020.38
2022-10-09T04:46:38.642Z,97018.94
2022-10-09T04:47:11.448Z,97013.88
2022-10-09T04:47:43.586Z,97016.22
2022-10-09T04:48:15.399Z,97013.38
2022-10-09T04:48:48.074Z,97019.06
2022-10-09T04:49:20.487Z,97009.50
2022-10-09T04:49:52.690Z,97008.28
2022-10-09T04:50:24.862Z,97013.25
2022-10-09T04:51:04.944Z,97017.38
2022-10-09T04:51:36.794Z,97017.38
2022-10-09T04:52:08.747Z,97017.38
2022-10-09T04:52:40.627Z,97018.44
2022-10-09T04:53:12.952Z,97019.25
2022-10-09T04:53:45.259Z,97022.06
2022-10-09T04:54:17.095Z,97008.16
2022-10-09T04:54:48.981Z,97019.47
2022-10-09T04:55:20.773Z,97015.34
2022-10-09T04:55:52.580Z,97010.84
2022-10-09T04:56:24.596Z,97012.69
2022-10-09T04:56:56.434Z,97013.13
2022-10-09T04:57:28.371Z,97014.09
2022-10-09T04:58:00.216Z,97012.22
2022-10-09T04:58:32.464Z,97013.38
2022-10-09T04:59:04.616Z,97014.81
2022-10-09T04:59:36.343Z,97009.91
2022-10-09T05:00:08.770Z,97016.28
2022-10-09T05:00:43.968Z,97017.19
2022-10-09T05:01:17.690Z,97009.41
2022-10-09T05:01:49.567Z,97020.81
2022-10-09T05:02:21.502Z,97014.59
2022-10-09T05:02:53.554Z,97009.59
2022-10-09T05:03:25.449Z,97014.09
2022-10-09T05:03:57.377Z,97018.94
2022-10-09T05:04:29.355Z,97015.41
2022-10-09T05:05:01.180Z,97017.47
2022-10-09T05:05:33.348Z,97017.63
2022-10-09T05:06:07.995Z,97010.44
2022-10-09T05:06:39.788Z,97016.44
2022-10-09T05:07:11.612Z,97009.34
2022-10-09T05:07:43.394Z,97013.41
2022-10-09T05:08:15.229Z,97009.47
2022-10-09T05:08:48.072Z,97021.09
2022-10-09T05:09:19.857Z,97012.31
2022-10-09T05:09:51.583Z,97015.78
2022-10-09T05:10:23.366Z,97008.75
2022-10-09T05:11:00.559Z,97009.09
2022-10-09T05:11:32.368Z,97011.97
2022-10-09T05:12:04.983Z,97005.41
2022-10-09T05:12:36.795Z,97002.16
2022-10-09T05:13:08.591Z,97011.31
2022-10-09T05:13:42.654Z,97014.97
2022-10-09T05:14:14.552Z,97013.53
2022-10-09T05:14:46.375Z,97011.84
2022-10-09T05:15:19.697Z,97005.41
2022-10-09T05:15:51.524Z,97007.31
2022-10-09T05:16:28.668Z,97007.38
2022-10-09T05:17:23.137Z,97009.06
2022-10-09T05:17:55.532Z,97013.50
2022-10-09T05:18:27.322Z,97016.50
2022-10-09T05:19:00.614Z,97014.88
2022-10-09T05:19:32.716Z,97017.47
2022-10-09T05:20:04.717Z,97015.19
2022-10-09T05:20:41.330Z,97021.31
2022-10-09T05:21:13.931Z,97019.16
2022-10-09T05:21:45.699Z,97016.31
2022-10-09T05:22:17.504Z,97019.78
2022-10-09T05:22:49.447Z,97017.00
2022-10-09T05:23:21.655Z,97017.34
2022-10-09T05:23:54.877Z,97019.38
2022-10-09T05:24:27.524Z,97014.34
2022-10-09T05:24:59.281Z,97008.25
2022-10-09T05:25:31.072Z,97005.00
2022-10-09T05:26:06.134Z,97011.88
2022-10-09T05:26:38.005Z,97007.06
2022-10-09T05:27:10.200Z,97005.97
2022-10-09T05:27:42.007Z,97006.91
2022-10-09T05:28:13.801Z,97011.66
2022-10-09T05:28:47.610Z,97005.72
2022-10-09T05:29:19.505Z,97012.63
2022-10-09T05:29:51.309Z,97012.31
2022-10-09T05:30:23.102Z,97004.75
2022-10-09T05:30:54.980Z,97011.53
2022-10-09T05:31:28.826Z,97004.03
2022-10-09T05:32:00.717Z,97002.16
2022-10-09T05:32:32.895Z,97004.16
2022-10-09T05:33:04.746Z,97004.69
2022-10-09T05:33:36.624Z,97005.72
2022-10-09T05:34:08.494Z,97005.56
2022-10-09T05:34:40.415Z,97004.94
2022-10-09T05:35:13.823Z,97003.38
2022-10-09T05:35:59.234Z,96999.06
2022-10-09T05:36:31.047Z,97004.38
2022-10-09T05:37:02.856Z,97006.69
2022-10-09T05:37:35.005Z,96998.84
2022-10-09T05:38:06.836Z,97005.41
2022-10-09T05:38:38.666Z,97002.94
2022-10-09T05:39:10.761Z,97001.16
2022-10-09T05:39:42.814Z,97003.94
2022-10-09T05:40:14.704Z,97005.63
2022-10-09T05:41:03.853Z,97004.13
2022-10-09T05:41:35.844Z,97005.09
2022-10-09T05:42:07.778Z,97005.72
2022-10-09T05:42:39.733Z,97005.09
2022-10-09T05:43:11.511Z,97007.31
2022-10-09T05:43:45.519Z,97010.69
2022-10-09T05:44:17.414Z,97002.19
2022-10-09T05:44:49.268Z,97007.81
2022-10-09T05:45:21.224Z,97004.38
2022-10-09T05:45:53.321Z,97000.63
2022-10-09T05:46:25.718Z,97007.00
2022-10-09T05:46:57.669Z,97007.81
2022-10-09T05:47:32.297Z,97006.47
2022-10-09T05:48:04.377Z,97009.00
2022-10-09T05:48:37.722Z,97012.16
2022-10-09T05:49:10.075Z,97004.16
2022-10-09T05:49:42.126Z,97010.75
2022-10-09T05:50:14.175Z,97006.50
2022-10-09T05:50:46.437Z,97003.50
2022-10-09T05:51:21.455Z,97006.41
2022-10-09T05:51:54.101Z,96998.84
2022-10-09T05:52:26.130Z,97007.41
2022-10-09T05:52:57.951Z,97003.19
2022-10-09T05:53:29.874Z,97001.50
2022-10-09T05:54:02.313Z,97006.09
2022-10-09T05:54:34.216Z,97003.81
2022-10-09T05:55:07.380Z,97005.50
2022-10-09T05:55:39.630Z,97006.22
2022-10-09T05:56:16.775Z,97005.72
2022-10-09T05:56:48.690Z,97001.91
2022-10-09T05:57:20.488Z,97009.66
2022-10-09T05:57:53.239Z,97009.13
2022-10-09T05:58:25.084Z,97011.03
2022-10-09T05:59:06.659Z,97005.84
2022-10-09T05:59:38.619Z,97007.13
2022-10-09T06:00:11.172Z,97007.13
2022-10-09T06:00:44.429Z,97009.78
2022-10-09T06:01:16.265Z,97012.59
2022-10-09T06:01:50.784Z,97006.06
2022-10-09T06:02:22.745Z,97007.06
2022-10-09T06:02:54.992Z,97003.19
2022-10-09T06:03:26.903Z,97002.00
2022-10-09T06:04:00.141Z,97002.63
2022-10-09T06:04:31.983Z,97006.16
2022-10-09T06:05:03.993Z,97003.47
2022-10-09T06:05:35.845Z,97005.47
2022-10-09T06:06:08.800Z,97006.09
2022-10-09T06:06:41.672Z,97002.84
2022-10-09T06:07:13.492Z,97000.94
2022-10-09T06:07:46.687Z,97002.47
2022-10-09T06:08:20.060Z,97003.06
2022-10-09T06:08:52.273Z,97008.31
2022-10-09T06:09:25.514Z,97012.84
2022-10-09T06:09:57.412Z,97006.56
2022-10-09T06:10:32.383Z,97007.19
2022-10-09T06:11:15.061Z,97005.34
2022-10-09T06:11:46.982Z,97010.41
2022-10-09T06:12:18.828Z,97007.63
2022-10-09T06:12:50.930Z,97007.13
2022-10-09T06:13:22.966Z,97017.59
2022-10-09T06:13:56.112Z,97006.03
2022-10-09T06:14:28.015Z,97002.56
2022-10-09T06:14:59.904Z,97008.06
2022-10-09T06:15:31.748Z,97009.66
2022-10-09T06:16:04.049Z,97009.88
2022-10-09T06:16:41.536Z,97003.56
2022-10-09T06:17:13.446Z,97010.03
2022-10-09T06:17:45.332Z,97012.91
2022-10-09T06:18:18.571Z,97009.13
2022-10-09T06:18:50.668Z,97008.69
2022-10-09T06:19:22.997Z,97011.66
2022-10-09T06:19:54.847Z,97012.56
2022-10-09T06:20:26.699Z,97009.16
2022-10-09T06:21:01.040Z,97015.44
2022-10-09T06:21:33.191Z,97014.31
2022-10-09T06:22:04.996Z,97012.09
2022-10-09T06:22:36.895Z,97010.53
2022-10-09T06:23:08.682Z,97017.94
2022-10-09T06:23:40.632Z,97015.75
2022-10-09T06:24:18.922Z,97016.41
2022-10-09T06:24:50.780Z,97009.81
2022-10-09T06:25:22.566Z,97007.63
2022-10-09T06:26:00.815Z,97010.47
2022-10-09T06:26:33.637Z,97005.09
2022-10-09T06:27:05.486Z,97014.53
2022-10-09T06:27:37.321Z,97015.44
2022-10-09T06:28:09.245Z,97011.88
2022-10-09T06:28:41.854Z,97017.84
2022-10-09T06:29:13.963Z,97017.41
2022-10-09T06:29:45.946Z,97018.81
2022-10-09T06:30:17.758Z,97009.06
2022-10-09T06:30:50.572Z,97017.19
2022-10-09T06:31:24.984Z,97015.00
2022-10-09T06:31:57.105Z,97015.78
2022-10-09T06:32:28.969Z,97016.59
2022-10-09T06:33:00.845Z,97014.41
2022-10-09T06:33:33.944Z,97016.59
2022-10-09T06:34:05.972Z,97015.16
2022-10-09T06:34:37.820Z,97015.94
2022-10-09T06:35:09.777Z,97015.16
2022-10-09T06:35:42.033Z,97016.75
2022-10-09T06:36:22.402Z,97022.09
2022-10-09T06:36:54.221Z,97017.25
2022-10-09T06:37:25.989Z,97015.03
2022-10-09T06:37:57.916Z,97019.72
2022-10-09T06:38:30.579Z,97013.00
2022-10-09T06:39:05.612Z,97015.06
2022-10-09T06:39:37.524Z,97019.91
2022-10-09T06:40:09.610Z,97016.28